Hoytville, Ohio
Current Conditions -  °F | °C
As of 7:53 PM on Friday 24 Oct 2014 (Local Time) from KFDY Reporting Station
Clear Clear  
Wind Chill: 58°   Ceiling: Unl
Heat Index: 58°   Visibility: 10mi
Dew Point: 45°   Wind: 3mph
Humidity: 62%   Direction: 340°NNW
Pressure: 30"   Gusts: NA
Location:  41.19°N, 83.78°W
Report Text: KFDY 242353Z AUTO 34003KT 10SM CLR 14/07 A3000 RMK AO2 SLP159 T01440072 10183 20139 53004
Loading
Personal Weather Stations






























Interactive Weather Map
Tropical Storm Tracking
New forecast layout! Learn more

10-Day Weather Forecast

Advertisements
Track Severe Weather on mobile